createdAt,value
2022-12-29T00:02:56.473Z,1.95
2022-12-29T00:08:00.368Z,2.72
2022-12-29T00:13:18.338Z,2.05
2022-12-29T00:18:23.416Z,1.50
2022-12-29T00:23:44.744Z,1.50
2022-12-29T00:29:06.328Z,2.35
2022-12-29T00:34:32.699Z,1.70
2022-12-29T00:39:54.009Z,1.02
2022-12-29T00:44:57.796Z,4.47
2022-12-29T00:50:02.966Z,1.95
2022-12-29T00:55:07.337Z,3.17
2022-12-29T01:00:12.688Z,1.90
2022-12-29T01:05:17.781Z,3.55
2022-12-29T01:10:22.629Z,2.72
2022-12-29T01:15:26.332Z,3.33
2022-12-29T01:20:31.405Z,5.50
2022-12-29T01:25:35.126Z,3.10
2022-12-29T01:30:39.306Z,3.20
2022-12-29T01:35:44.392Z,2.83
2022-12-29T01:40:49.201Z,3.37
2022-12-29T01:45:55.901Z,3.08
2022-12-29T01:51:01.076Z,6.37
2022-12-29T01:56:09.552Z,4.12
2022-12-29T02:01:13.760Z,4.32
2022-12-29T02:06:23.191Z,4.32
2022-12-29T02:11:28.859Z,2.53
2022-12-29T02:16:45.675Z,2.92
2022-12-29T02:22:15.084Z,4.15
2022-12-29T02:27:39.789Z,5.05
2022-12-29T02:32:54.721Z,4.70
2022-12-29T02:38:09.579Z,1.80
2022-12-29T02:43:24.751Z,2.20
2022-12-29T02:48:34.853Z,1.23
2022-12-29T02:53:56.739Z,5.53
2022-12-29T02:59:00.644Z,6.03
2022-12-29T03:04:20.978Z,2.12
2022-12-29T03:09:38.581Z,2.37
2022-12-29T03:15:11.764Z,5.05
2022-12-29T03:20:23.674Z,2.30
2022-12-29T03:25:32.040Z,3.50
2022-12-29T03:30:37.948Z,4.05
2022-12-29T03:35:46.240Z,5.55
2022-12-29T03:45:56.119Z,3.10
2022-12-29T03:51:01.249Z,3.85
2022-12-29T03:56:05.613Z,8.43
2022-12-29T04:01:10.549Z,2.85
2022-12-29T04:06:15.789Z,5.87
2022-12-29T04:11:21.791Z,3.53
2022-12-29T04:16:26.513Z,3.53
2022-12-29T04:21:31.734Z,5.87
2022-12-29T04:26:35.993Z,4.45
2022-12-29T04:31:43.548Z,6.20
2022-12-29T04:36:49.393Z,6.40
2022-12-29T04:41:54.717Z,3.30
2022-12-29T04:46:58.713Z,9.32
2022-12-29T04:52:05.129Z,13.60
2022-12-29T04:57:10.099Z,9.20
2022-12-29T05:02:15.753Z,5.68
2022-12-29T05:07:23.152Z,8.02
2022-12-29T05:12:31.240Z,7.20
2022-12-29T05:17:35.158Z,7.93
2022-12-29T05:22:40.506Z,13.95
2022-12-29T05:27:44.967Z,9.57
2022-12-29T05:32:50.597Z,7.45
2022-12-29T05:37:56.187Z,7.43
2022-12-29T05:42:59.981Z,7.07
2022-12-29T05:48:05.835Z,13.43
2022-12-29T05:53:11.178Z,11.02
2022-12-29T05:58:15.697Z,6.75
2022-12-29T06:03:19.676Z,9.05
2022-12-29T06:08:25.947Z,8.38
2022-12-29T06:13:30.176Z,10.00
2022-12-29T06:18:34.361Z,8.38
2022-12-29T06:23:39.397Z,5.55
2022-12-29T06:28:43.158Z,7.32
2022-12-29T06:33:50.086Z,9.95
2022-12-29T06:38:55.856Z,2.30
2022-12-29T06:44:00.055Z,11.27
2022-12-29T06:49:05.926Z,8.60
2022-12-29T06:54:11.047Z,5.53
2022-12-29T06:59:14.999Z,6.70
2022-12-29T07:04:18.878Z,4.43
2022-12-29T07:09:23.926Z,11.10
2022-12-29T07:14:27.669Z,7.45
2022-12-29T07:19:31.389Z,9.68
2022-12-29T07:24:36.412Z,11.40
2022-12-29T07:29:40.235Z,13.40
2022-12-29T07:34:46.260Z,7.70
2022-12-29T07:39:51.372Z,12.23
2022-12-29T07:44:55.077Z,12.60
2022-12-29T07:49:59.056Z,12.32
2022-12-29T07:55:04.160Z,14.30
2022-12-29T08:00:10.531Z,8.95
2022-12-29T08:05:16.342Z,14.90
2022-12-29T08:10:21.540Z,15.13
2022-12-29T08:15:30.485Z,12.13
2022-12-29T08:20:36.189Z,11.60
2022-12-29T08:25:41.245Z,14.32
2022-12-29T08:30:45.076Z,14.68
2022-12-29T08:35:48.848Z,10.90
2022-12-29T08:40:54.795Z,19.73
2022-12-29T08:45:59.731Z,12.73
2022-12-29T08:51:03.559Z,12.20
2022-12-29T08:56:10.861Z,13.00
2022-12-29T09:01:16.032Z,11.00
2022-12-29T09:06:20.092Z,12.35
2022-12-29T09:11:26.737Z,9.77
2022-12-29T09:16:30.586Z,14.07
2022-12-29T09:21:34.430Z,7.10
2022-12-29T09:26:46.685Z,12.85
2022-12-29T09:31:50.852Z,16.23
2022-12-29T09:36:54.682Z,16.67
2022-12-29T09:42:06.099Z,13.25
2022-12-29T09:47:13.423Z,17.55
2022-12-29T09:52:22.392Z,11.77
2022-12-29T09:57:30.795Z,15.75
2022-12-29T10:02:39.798Z,17.40
2022-12-29T10:07:52.210Z,9.65
2022-12-29T10:13:11.272Z,9.20
2022-12-29T10:18:51.175Z,9.52
2022-12-29T10:23:55.166Z,10.88
2022-12-29T10:29:05.804Z,12.52
2022-12-29T10:34:21.057Z,14.20
2022-12-29T10:39:32.608Z,13.75
2022-12-29T10:44:37.895Z,11.38
2022-12-29T10:49:44.731Z,13.27
2022-12-29T10:54:53.102Z,9.57
2022-12-29T10:59:59.225Z,16.02
2022-12-29T11:05:09.974Z,10.65
2022-12-29T11:10:22.365Z,19.35
2022-12-29T11:15:27.874Z,15.07
2022-12-29T11:20:35.980Z,20.52
2022-12-29T11:25:39.776Z,26.58
2022-12-29T11:30:45.356Z,26.58
2022-12-29T11:35:49.325Z,13.57
2022-12-29T11:40:53.730Z,18.30
2022-12-29T11:45:59.152Z,15.15
2022-12-29T11:51:02.916Z,16.10
2022-12-29T11:56:10.727Z,14.20
2022-12-29T12:01:20.597Z,14.60
2022-12-29T12:06:25.700Z,16.83
2022-12-29T12:11:37.959Z,24.73
2022-12-29T12:16:48.255Z,16.75
2022-12-29T12:21:57.644Z,20.17
2022-12-29T12:27:04.537Z,12.70
2022-12-29T12:32:16.737Z,16.12
2022-12-29T12:37:49.063Z,9.65
2022-12-29T12:43:03.958Z,17.50
2022-12-29T12:48:33.953Z,13.88
2022-12-29T12:53:53.625Z,15.50
2022-12-29T12:59:09.604Z,16.67
2022-12-29T13:04:46.224Z,8.02
2022-12-29T13:10:19.350Z,13.85
2022-12-29T13:15:40.767Z,6.60
2022-12-29T13:20:53.670Z,15.27
2022-12-29T13:26:07.054Z,11.57
2022-12-29T13:31:17.893Z,10.15
2022-12-29T13:36:28.483Z,20.02
2022-12-29T13:41:36.017Z,12.90
2022-12-29T13:46:42.900Z,9.53
2022-12-29T13:51:51.413Z,13.45
2022-12-29T13:57:02.909Z,16.15
2022-12-29T14:02:19.672Z,14.93
2022-12-29T14:07:24.887Z,14.25
2022-12-29T14:12:35.139Z,23.52
2022-12-29T14:17:40.401Z,13.70
2022-12-29T14:22:58.480Z,13.48
2022-12-29T14:28:17.982Z,18.15
2022-12-29T14:33:24.655Z,11.00
2022-12-29T14:38:33.913Z,8.20
2022-12-29T14:43:38.976Z,15.30
2022-12-29T14:48:45.476Z,13.93
2022-12-29T14:53:52.323Z,12.70
2022-12-29T14:58:58.880Z,10.00
2022-12-29T15:04:09.401Z,13.77
2022-12-29T15:09:26.722Z,14.48
2022-12-29T15:14:35.546Z,5.33
2022-12-29T15:19:39.628Z,11.68
2022-12-29T15:24:46.094Z,6.95
2022-12-29T15:29:50.199Z,11.77
2022-12-29T15:34:55.534Z,5.90
2022-12-29T15:40:00.624Z,10.70
2022-12-29T15:45:11.124Z,11.05
2022-12-29T15:50:24.009Z,6.12
2022-12-29T15:55:33.993Z,8.18
2022-12-29T16:00:38.675Z,6.65
2022-12-29T16:05:42.800Z,8.73
2022-12-29T16:10:47.941Z,7.85
2022-12-29T16:15:54.103Z,8.43
2022-12-29T16:20:59.322Z,7.68
2022-12-29T16:26:08.839Z,9.63
2022-12-29T16:31:21.480Z,8.43
2022-12-29T16:36:34.719Z,9.88
2022-12-29T16:41:39.833Z,18.70
2022-12-29T16:46:58.596Z,21.25
2022-12-29T16:52:03.289Z,12.52
2022-12-29T16:57:10.442Z,17.27
2022-12-29T17:02:16.742Z,13.43
2022-12-29T17:07:22.597Z,17.92
2022-12-29T17:12:31.759Z,11.43
2022-12-29T17:17:38.324Z,22.60
2022-12-29T17:22:42.108Z,9.82
2022-12-29T17:27:49.796Z,9.30
2022-12-29T17:32:55.401Z,8.30
2022-12-29T17:37:59.133Z,8.88
2022-12-29T17:43:04.226Z,13.68
2022-12-29T17:48:13.447Z,10.13
2022-12-29T17:53:21.307Z,15.93
2022-12-29T17:58:28.139Z,15.68
2022-12-29T18:03:34.910Z,16.40
2022-12-29T18:08:40.193Z,8.18
2022-12-29T18:13:46.962Z,15.07
2022-12-29T18:18:50.888Z,17.95
2022-12-29T18:23:54.836Z,14.52
2022-12-29T18:29:00.507Z,24.17
2022-12-29T18:34:13.784Z,18.58
2022-12-29T18:39:17.517Z,20.20
2022-12-29T18:44:24.525Z,18.85
2022-12-29T18:49:28.295Z,16.05
2022-12-29T18:54:33.892Z,29.15
2022-12-29T18:59:39.061Z,22.10
2022-12-29T19:04:42.765Z,19.30
2022-12-29T19:09:46.470Z,24.55
2022-12-29T19:14:51.568Z,23.77
2022-12-29T19:19:55.345Z,20.25
2022-12-29T19:25:00.293Z,29.48
2022-12-29T19:30:06.572Z,26.00
2022-12-29T19:35:12.562Z,21.90
2022-12-29T19:40:19.777Z,26.80
2022-12-29T19:45:24.919Z,22.17
2022-12-29T19:50:28.697Z,21.35
2022-12-29T19:55:32.438Z,21.55
2022-12-29T20:00:39.946Z,45.30
2022-12-29T20:05:49.392Z,34.67
2022-12-29T20:10:58.705Z,26.80
2022-12-29T20:16:05.788Z,29.60
2022-12-29T20:21:13.254Z,24.10
2022-12-29T20:26:19.491Z,14.97
2022-12-29T20:31:27.692Z,27.58
2022-12-29T20:36:33.363Z,20.50
2022-12-29T20:41:37.314Z,15.70
2022-12-29T20:46:44.109Z,17.05
2022-12-29T20:52:05.853Z,19.85
2022-12-29T20:57:10.286Z,15.85
2022-12-29T21:02:21.388Z,17.73
2022-12-29T21:07:25.345Z,18.20
2022-12-29T21:12:29.202Z,13.48
2022-12-29T21:17:34.442Z,17.05
2022-12-29T21:22:38.216Z,14.95
2022-12-29T21:27:44.620Z,16.62
2022-12-29T21:32:50.249Z,24.80
2022-12-29T21:37:54.141Z,18.70
2022-12-29T21:42:58.040Z,17.35
2022-12-29T21:48:23.941Z,19.20
2022-12-29T21:53:37.884Z,19.62
2022-12-29T21:59:01.426Z,18.15
2022-12-29T22:04:24.268Z,16.08
2022-12-29T22:09:45.693Z,20.85
2022-12-29T22:14:49.424Z,26.75
2022-12-29T22:19:54.550Z,16.77
2022-12-29T22:24:58.313Z,15.18
2022-12-29T22:30:02.360Z,15.32
2022-12-29T22:35:08.948Z,13.88
2022-12-29T22:40:13.721Z,18.12
2022-12-29T22:45:17.864Z,21.58
2022-12-29T22:50:22.915Z,26.52
2022-12-29T22:55:26.802Z,15.98
2022-12-29T23:00:30.541Z,22.00
2022-12-29T23:05:35.687Z,14.77
2022-12-29T23:10:39.365Z,16.12
2022-12-29T23:15:43.122Z,23.67
2022-12-29T23:20:49.496Z,11.88
2022-12-29T23:25:53.252Z,15.23
2022-12-29T23:30:57.008Z,15.55
2022-12-29T23:36:02.147Z,18.80
2022-12-29T23:41:06.220Z,14.63
2022-12-29T23:46:11.283Z,11.43
2022-12-29T23:51:16.888Z,19.87
2022-12-29T23:56:22.558Z,18.62
